Olmstead, Kentucky
Current Conditions -  °F | °C
As of 7:55 PM on Monday 24 Nov 2014 (Local Time) from KM91 Reporting Station
Clear Clear  
Wind Chill: 37°   Ceiling: Unl
Heat Index: 41°   Visibility: 10mi
Dew Point: 34°   Wind: 6mph
Humidity: 76%   Direction: 240°WSW
Pressure: 29.97"   Gusts: NA
Location:  36.75°N, 87.02°W
Report Text: KM91 250155Z AUTO 24005KT 10SM CLR 05/01 A2997 RMK
Loading
Personal Weather Stations






























Interactive Weather Map New forecast layout! Learn more

10-Day Weather Forecast

Advertisements
Track Severe Weather on mobile